Time;durP1;ratioP1;P1;durP2;ratioP2;P2;SDS_P1;SDS_P2;PMS_P1;PMS_P2;Temp;Humidity;BMP_temperature;BMP_pressure;BME280_temperature;BME280_humidity;BME280_pressure;Samples;Min_cycle;Max_cycle;Signal;HPM_P1;HPM_P2
2023/12/19 00:00:47;;;;;;;;;;;;;;;21.74;28.42;102696.00;4230057;28;20344;-62
2023/12/19 00:02:49;;;;;;;;;;;;;;;21.73;28.40;102691.56;4230509;28;19923;-62
2023/12/19 00:04:50;;;;;;;;;;;;;;;21.71;28.56;102677.38;4230524;28;20135;-62
2023/12/19 00:06:52;;;;;;;;;;;;;;;21.71;28.69;102669.34;4230537;28;19920;-61
2023/12/19 00:08:53;;;;;;;;;;;;;;;21.72;28.68;102668.41;4233530;28;19920;-62
2023/12/19 00:10:55;;;;;;;;;;;;;;;21.74;28.35;102662.97;4233720;28;19962;-61
2023/12/19 00:12:56;;;;;;;;;;;;;;;21.75;28.57;102673.63;4233600;28;19920;-61
2023/12/19 00:14:58;;;;;;;;;;;;;;;21.78;28.62;102667.25;4233251;28;20259;-62
2023/12/19 00:17:00;;;;;;;;;;;;;;;21.79;28.61;102650.22;4233411;28;19926;-62
2023/12/19 00:19:02;;;;;;;;;;;;;;;21.76;28.45;102640.50;4233614;28;20022;-62
2023/12/19 00:21:04;;;;;;;;;;;;;;;21.76;28.59;102629.78;4233290;28;20014;-62
2023/12/19 00:23:06;;;;;;;;;;;;;;;21.73;28.62;102627.31;4233351;28;19924;-62
2023/12/19 00:25:08;;;;;;;;;;;;;;;21.72;28.35;102630.06;4232969;28;19920;-62
2023/12/19 00:27:09;;;;;;;;;;;;;;;21.72;28.77;102632.75;4233416;28;19935;-62
2023/12/19 00:29:11;;;;;;;;;;;;;;;21.70;28.59;102628.34;4231894;28;20298;-61
2023/12/19 00:31:22;;;;;;;;;;;;;;;21.73;28.77;102629.13;4233545;28;19920;-61
2023/12/19 00:33:23;;;;;;;;;;;;;;;21.74;28.78;102626.34;4233192;28;20003;-62
2023/12/19 00:35:25;;;;;;;;;;;;;;;21.76;28.74;102627.13;4233107;28;19927;-61
2023/12/19 00:37:27;;;;;;;;;;;;;;;21.77;28.49;102619.97;4233382;28;19919;-61
2023/12/19 00:39:28;;;;;;;;;;;;;;;21.76;28.81;102611.06;4233118;28;20024;-61
2023/12/19 00:41:30;;;;;;;;;;;;;;;21.74;28.51;102607.63;4232944;28;19920;-61
2023/12/19 00:43:31;;;;;;;;;;;;;;;21.74;28.63;102614.75;4232892;27;20035;-61
2023/12/19 00:45:33;;;;;;;;;;;;;;;21.71;28.77;102602.41;4232978;28;19920;-62
2023/12/19 00:47:34;;;;;;;;;;;;;;;21.69;28.63;102604.31;4233029;28;19948;-62
2023/12/19 00:49:38;;;;;;;;;;;;;;;21.68;28.76;102606.13;4233193;28;20006;-62
2023/12/19 00:51:39;;;;;;;;;;;;;;;21.70;28.87;102603.34;4233124;28;19919;-62
2023/12/19 00:53:41;;;;;;;;;;;;;;;21.72;28.65;102608.66;4233005;28;19965;-62
2023/12/19 00:55:42;;;;;;;;;;;;;;;21.74;28.61;102607.63;4232886;28;19919;-62
2023/12/19 00:57:45;;;;;;;;;;;;;;;21.73;28.56;102605.88;4232969;28;19919;-62
2023/12/19 00:59:46;;;;;;;;;;;;;;;21.76;28.70;102602.16;4232443;28;19926;-62
2023/12/19 01:01:48;;;;;;;;;;;;;;;21.75;28.86;102614.69;4232739;28;19964;-62
2023/12/19 01:03:49;;;;;;;;;;;;;;;21.74;28.44;102612.97;4232847;28;19946;-63
2023/12/19 01:05:51;;;;;;;;;;;;;;;21.72;28.83;102614.84;4232962;28;19993;-63
2023/12/19 01:07:53;;;;;;;;;;;;;;;21.70;28.75;102614.94;4232999;28;20022;-62
2023/12/19 01:09:54;;;;;;;;;;;;;;;21.70;28.48;102616.75;4232838;28;19920;-62
2023/12/19 01:11:58;;;;;;;;;;;;;;;21.72;28.85;102622.88;4232524;28;19973;-62
2023/12/19 01:13:59;;;;;;;;;;;;;;;21.73;28.75;102623.78;4232298;28;20275;-62
2023/12/19 01:16:01;;;;;;;;;;;;;;;21.75;28.82;102641.47;4232549;28;20275;-62
2023/12/19 01:18:02;;;;;;;;;;;;;;;21.77;28.81;102641.41;4232280;28;20006;-63
2023/12/19 01:20:04;;;;;;;;;;;;;;;21.78;28.81;102633.28;4232509;28;19920;-62
2023/12/19 01:22:06;;;;;;;;;;;;;;;21.79;28.57;102639.50;4232620;28;19919;-62
2023/12/19 01:24:07;;;;;;;;;;;;;;;21.77;28.69;102644.06;4232402;28;20413;-62
2023/12/19 01:26:09;;;;;;;;;;;;;;;21.76;28.83;102637.84;4232566;28;20025;-62
2023/12/19 01:28:20;;;;;;;;;;;;;;;21.73;28.65;102627.31;4232071;28;19959;-62
2023/12/19 01:30:22;;;;;;;;;;;;;;;21.70;28.67;102625.66;4232277;28;19946;-62
2023/12/19 01:32:25;;;;;;;;;;;;;;;21.72;28.64;102628.25;4232442;28;19965;-63
2023/12/19 01:34:27;;;;;;;;;;;;;;;21.73;28.85;102621.09;4231196;28;19969;-63
2023/12/19 01:36:28;;;;;;;;;;;;;;;21.75;28.90;102616.50;4232343;28;20378;-62
2023/12/19 01:38:30;;;;;;;;;;;;;;;21.78;28.69;102608.31;4232245;28;20387;-62
2023/12/19 01:40:32;;;;;;;;;;;;;;;21.79;28.61;102613.59;4232209;28;19992;-62
2023/12/19 01:42:33;;;;;;;;;;;;;;;21.81;28.78;102608.13;4231893;28;19966;-62
2023/12/19 01:44:35;;;;;;;;;;;;;;;21.82;28.76;102599.16;4232324;28;19920;-62
2023/12/19 01:46:36;;;;;;;;;;;;;;;21.81;28.66;102600.97;4232185;28;19927;-62
2023/12/19 01:48:38;;;;;;;;;;;;;;;21.79;28.61;102584.13;4232138;28;20002;-62
2023/12/19 01:50:40;;;;;;;;;;;;;;;21.75;28.86;102582.56;4232094;28;19919;-62
2023/12/19 01:52:43;;;;;;;;;;;;;;;21.74;28.95;102598.69;4231936;28;20022;-62
2023/12/19 01:54:45;;;;;;;;;;;;;;;21.74;29.08;102594.22;4232059;28;20101;-62
2023/12/19 01:56:47;;;;;;;;;;;;;;;21.77;28.80;102590.50;4231578;28;20272;-62
2023/12/19 01:58:48;;;;;;;;;;;;;;;21.79;28.92;102586.81;4232090;28;20027;-62
2023/12/19 02:00:51;;;;;;;;;;;;;;;21.82;28.85;102599.16;4231766;28;19920;-63
2023/12/19 02:02:52;;;;;;;;;;;;;;;21.84;28.59;102603.47;4231749;28;19924;-62
2023/12/19 02:04:56;;;;;;;;;;;;;;;21.84;28.86;102598.13;4230665;28;20341;-62
2023/12/19 02:06:58;;;;;;;;;;;;;;;21.83;28.84;102607.09;4231904;28;19919;-63
2023/12/19 02:08:59;;;;;;;;;;;;;;;21.82;28.83;102604.50;4231742;28;20405;-62
2023/12/19 02:11:01;;;;;;;;;;;;;;;21.80;28.88;102603.72;4231443;28;19937;-61
2023/12/19 02:13:02;;;;;;;;;;;;;;;21.79;28.54;102605.53;4231860;28;19923;-62
2023/12/19 02:15:06;;;;;;;;;;;;;;;21.77;28.94;102609.25;4231773;28;19927;-61
2023/12/19 02:17:08;;;;;;;;;;;;;;;21.80;28.72;102609.06;4231733;28;19920;-63
2023/12/19 02:19:12;;;;;;;;;;;;;;;21.80;29.11;102612.63;4231701;28;19920;-61
2023/12/19 02:21:18;;;;;;;;;;;;;;;21.84;28.68;102616.03;4231417;28;19919;-62
2023/12/19 02:23:20;;;;;;;;;;;;;;;21.86;28.70;102611.47;4230448;28;20395;-61
2023/12/19 02:25:26;;;;;;;;;;;;;;;21.86;28.53;102615.00;4231002;28;19959;-62
2023/12/19 02:27:29;;;;;;;;;;;;;;;21.88;28.96;102612.22;4231644;28;19930;-62
2023/12/19 02:29:30;;;;;;;;;;;;;;;21.86;28.77;102603.41;4231181;28;19966;-62
2023/12/19 02:31:32;;;;;;;;;;;;;;;21.83;28.50;102607.09;4231111;28;19978;-63
2023/12/19 02:33:34;;;;;;;;;;;;;;;21.82;28.57;102599.16;4230209;28;19920;-62
2023/12/19 02:35:35;;;;;;;;;;;;;;;21.80;29.00;102593.88;4231452;28;19920;-63
2023/12/19 02:37:37;;;;;;;;;;;;;;;21.80;28.67;102598.38;4231457;28;19920;-62
2023/12/19 02:39:38;;;;;;;;;;;;;;;21.81;28.79;102587.59;4230975;28;20007;-62
2023/12/19 02:41:40;;;;;;;;;;;;;;;21.83;28.80;102591.03;4231393;28;20302;-63
2023/12/19 02:43:42;;;;;;;;;;;;;;;21.88;28.64;102590.78;4231225;28;19920;-62
2023/12/19 02:45:48;;;;;;;;;;;;;;;21.89;28.88;102581.81;4231186;27;20010;-63
2023/12/19 02:47:49;;;;;;;;;;;;;;;21.90;28.65;102582.69;4231253;28;19973;-62
2023/12/19 02:49:51;;;;;;;;;;;;;;;21.89;28.67;102580.97;4231172;28;20306;-62
2023/12/19 02:51:53;;;;;;;;;;;;;;;21.88;28.72;102579.22;4231285;28;19964;-62
2023/12/19 02:53:54;;;;;;;;;;;;;;;21.86;28.72;102574.81;4230766;28;19972;-62
2023/12/19 02:55:56;;;;;;;;;;;;;;;21.83;29.15;102574.97;4231150;28;19920;-62
2023/12/19 02:57:58;;;;;;;;;;;;;;;21.84;29.17;102557.09;4230939;28;19993;-63
2023/12/19 03:00:02;;;;;;;;;;;;;;;21.83;28.87;102553.53;4231179;28;19919;-62
2023/12/19 03:02:04;;;;;;;;;;;;;;;21.85;28.83;102551.66;4231217;28;20359;-62
2023/12/19 03:04:05;;;;;;;;;;;;;;;21.89;28.98;102551.50;4231169;28;19933;-62
2023/12/19 03:06:07;;;;;;;;;;;;;;;21.91;28.84;102557.59;4230933;28;19919;-62
2023/12/19 03:08:08;;;;;;;;;;;;;;;21.92;28.88;102554.00;4230880;28;19926;-62
2023/12/19 03:10:10;;;;;;;;;;;;;;;21.93;28.86;102556.56;4230646;28;19923;-62
2023/12/19 03:12:12;;;;;;;;;;;;;;;21.92;29.08;102560.22;4231024;28;19919;-63
2023/12/19 03:14:13;;;;;;;;;;;;;;;21.90;28.76;102567.47;4231060;28;19949;-62
2023/12/19 03:16:16;;;;;;;;;;;;;;;21.90;28.71;102577.34;4230985;28;19926;-62
2023/12/19 03:18:23;;;;;;;;;;;;;;;21.85;28.96;102554.31;4230944;28;19934;-62
2023/12/19 03:20:25;;;;;;;;;;;;;;;21.88;28.84;102544.41;4230608;28;19961;-62
2023/12/19 03:22:27;;;;;;;;;;;;;;;21.87;28.89;102535.47;4230858;28;20336;-62
2023/12/19 03:24:28;;;;;;;;;;;;;;;21.89;28.78;102522.88;4230383;28;19938;-62
2023/12/19 03:26:33;;;;;;;;;;;;;;;21.92;28.92;102529.88;4230920;28;19930;-62
2023/12/19 03:28:37;;;;;;;;;;;;;;;21.94;28.83;102536.88;4230725;28;19931;-63
2023/12/19 03:30:38;;;;;;;;;;;;;;;21.95;28.71;102532.41;4230771;28;20348;-62
2023/12/19 03:32:40;;;;;;;;;;;;;;;21.96;28.98;102528.78;4230678;28;19928;-62
2023/12/19 03:34:42;;;;;;;;;;;;;;;21.94;28.82;102528.00;4230938;28;19919;-63
2023/12/19 03:36:44;;;;;;;;;;;;;;;21.93;28.82;102523.56;4230911;28;19923;-62
2023/12/19 03:38:45;;;;;;;;;;;;;;;21.92;28.87;102521.84;4230441;28;19973;-62
2023/12/19 03:40:47;;;;;;;;;;;;;;;21.91;29.07;102522.78;4230738;28;19920;-62
2023/12/19 03:42:48;;;;;;;;;;;;;;;21.90;28.99;102524.63;4234216;28;19947;-62
2023/12/19 03:44:50;;;;;;;;;;;;;;;21.92;28.89;102525.41;4233893;28;19924;-62
2023/12/19 03:46:52;;;;;;;;;;;;;;;21.94;29.07;102525.31;4234006;28;19920;-62
2023/12/19 03:48:53;;;;;;;;;;;;;;;21.97;28.81;102525.13;4234019;28;19936;-62
2023/12/19 03:50:55;;;;;;;;;;;;;;;21.97;28.98;102528.69;4234034;28;20405;-63
2023/12/19 03:52:56;;;;;;;;;;;;;;;21.97;29.03;102523.31;4233702;28;20023;-63
2023/12/19 03:54:58;;;;;;;;;;;;;;;21.99;28.90;102520.56;4233949;28;19926;-62
2023/12/19 03:56:59;;;;;;;;;;;;;;;21.96;28.99;102524.28;4233830;28;19973;-62
2023/12/19 03:59:01;;;;;;;;;;;;;;;21.94;28.87;102511.91;4233832;28;20006;-62
2023/12/19 04:01:02;;;;;;;;;;;;;;;21.92;28.97;102503.09;4234032;28;19919;-62
2023/12/19 04:03:04;;;;;;;;;;;;;;;21.92;28.78;102505.78;4233783;28;19924;-62
2023/12/19 04:05:06;;;;;;;;;;;;;;;21.91;29.14;102509.38;4233913;28;20290;-62
2023/12/19 04:07:08;;;;;;;;;;;;;;;21.94;29.00;102506.56;4233342;28;19920;-62
2023/12/19 04:09:09;;;;;;;;;;;;;;;21.96;29.13;102499.31;4233653;28;19980;-62
2023/12/19 04:11:11;;;;;;;;;;;;;;;21.97;28.91;102484.94;4233886;28;19920;-62
2023/12/19 04:13:12;;;;;;;;;;;;;;;21.97;28.81;102469.75;4233866;28;19920;-62
2023/12/19 04:15:14;;;;;;;;;;;;;;;21.98;29.07;102454.53;4233613;28;19928;-62
2023/12/19 04:17:16;;;;;;;;;;;;;;;21.96;29.14;102459.97;4233692;28;19919;-62
2023/12/19 04:19:19;;;;;;;;;;;;;;;21.96;29.06;102462.66;4233573;28;20014;-62
2023/12/19 04:21:21;;;;;;;;;;;;;;;21.94;28.95;102450.31;4233062;28;19973;-62
2023/12/19 04:23:23;;;;;;;;;;;;;;;21.91;29.38;102443.31;4233644;28;20276;-62
2023/12/19 04:25:24;;;;;;;;;;;;;;;21.92;29.29;102426.28;4233168;28;19977;-62
2023/12/19 04:27:26;;;;;;;;;;;;;;;21.92;29.15;102428.97;4233419;28;19920;-62
2023/12/19 04:29:27;;;;;;;;;;;;;;;21.94;29.21;102447.63;4233366;28;19923;-63
2023/12/19 04:31:29;;;;;;;;;;;;;;;21.97;28.97;102460.81;4233437;28;19926;-62
2023/12/19 04:33:31;;;;;;;;;;;;;;;21.99;28.99;102435.72;4233298;28;19919;-62
2023/12/19 04:35:32;;;;;;;;;;;;;;;22.00;29.00;102440.09;4232953;28;19976;-62
2023/12/19 04:37:34;;;;;;;;;;;;;;;22.00;29.15;102426.69;4233469;28;20403;-62
2023/12/19 04:39:35;;;;;;;;;;;;;;;22.01;28.96;102440.97;4233052;28;19920;-62
2023/12/19 04:41:37;;;;;;;;;;;;;;;21.98;28.98;102447.38;4233425;28;20022;-62
2023/12/19 04:43:39;;;;;;;;;;;;;;;21.97;29.05;102447.44;4233259;28;20278;-62
2023/12/19 04:45:40;;;;;;;;;;;;;;;21.95;28.99;102450.19;4233303;28;20362;-62
2023/12/19 04:47:42;;;;;;;;;;;;;;;21.94;29.08;102445.78;4233173;28;20468;-63
2023/12/19 04:49:43;;;;;;;;;;;;;;;21.96;28.94;102443.06;4233166;28;19919;-62
2023/12/19 04:51:45;;;;;;;;;;;;;;;21.99;29.23;102445.53;4232712;28;19923;-62
2023/12/19 04:53:47;;;;;;;;;;;;;;;22.01;28.97;102432.94;4232398;28;19919;-61
2023/12/19 04:55:49;;;;;;;;;;;;;;;22.02;29.18;102430.16;4233173;28;19947;-62
2023/12/19 04:57:51;;;;;;;;;;;;;;;22.05;28.93;102438.97;4233140;28;19981;-62
2023/12/19 04:59:52;;;;;;;;;;;;;;;22.05;29.07;102434.47;4232984;28;19920;-62
2023/12/19 05:01:54;;;;;;;;;;;;;;;22.03;29.13;102428.34;4233038;28;20327;-61
2023/12/19 05:03:55;;;;;;;;;;;;;;;22.01;29.02;102422.22;4232893;28;20405;-62
2023/12/19 05:05:57;;;;;;;;;;;;;;;21.98;29.12;102417.00;4232541;28;19966;-62
2023/12/19 05:07:58;;;;;;;;;;;;;;;21.96;29.04;102417.13;4232821;28;19947;-62
2023/12/19 05:10:00;;;;;;;;;;;;;;;21.96;29.33;102417.13;4232938;28;19989;-61
2023/12/19 05:12:03;;;;;;;;;;;;;;;21.98;29.29;102414.34;4232672;28;19955;-62
2023/12/19 05:14:05;;;;;;;;;;;;;;;22.00;29.31;102424.00;4232851;28;19927;-61
2023/12/19 05:16:13;;;;;;;;;;;;;;;22.04;29.05;102421.16;4232711;28;20348;-62
2023/12/19 05:18:18;;;;;;;;;;;;;;;22.06;29.38;102411.25;4232751;28;19930;-61
2023/12/19 05:20:19;;;;;;;;;;;;;;;22.07;28.98;102421.00;4232134;28;20243;-62
2023/12/19 05:22:21;;;;;;;;;;;;;;;22.06;29.27;102413.91;4232606;28;19920;-62
2023/12/19 05:24:23;;;;;;;;;;;;;;;22.04;28.96;102413.97;4232443;28;19947;-64
2023/12/19 05:26:24;;;;;;;;;;;;;;;22.02;29.08;102422.13;4232355;28;19972;-64
2023/12/19 05:28:26;;;;;;;;;;;;;;;22.00;29.34;102415.97;4232658;28;20340;-63
2023/12/19 05:30:28;;;;;;;;;;;;;;;21.99;29.50;102402.66;4231397;28;20093;-63
2023/12/19 05:32:29;;;;;;;;;;;;;;;21.99;29.40;102400.88;4232438;28;19973;-62
2023/12/19 05:34:31;;;;;;;;;;;;;;;22.02;29.36;102400.69;4232113;28;19919;-62
2023/12/19 05:36:34;;;;;;;;;;;;;;;22.06;29.10;102384.44;4232527;28;19920;-62
2023/12/19 05:38:41;;;;;;;;;;;;;;;22.07;28.90;102397.75;4232582;28;19919;-62
2023/12/19 05:40:42;;;;;;;;;;;;;;;22.09;29.11;102394.97;4232135;28;19958;-62
2023/12/19 05:42:44;;;;;;;;;;;;;;;22.09;29.33;102397.66;4232273;28;19924;-64
2023/12/19 05:44:46;;;;;;;;;;;;;;;22.08;29.33;102406.63;4232238;28;19955;-64
2023/12/19 05:46:47;;;;;;;;;;;;;;;22.06;29.08;102409.41;4232284;28;19919;-66
2023/12/19 05:48:49;;;;;;;;;;;;;;;22.05;29.13;102413.03;4230510;28;19969;-62
2023/12/19 05:50:51;;;;;;;;;;;;;;;22.04;29.40;102423.84;4232187;27;20343;-64
2023/12/19 05:52:53;;;;;;;;;;;;;;;22.03;29.29;102423.00;4232209;28;20351;-64
2023/12/19 05:54:54;;;;;;;;;;;;;;;22.04;29.45;102419.34;4232134;27;19920;-64
2023/12/19 05:56:56;;;;;;;;;;;;;;;22.08;29.29;102422.72;4231966;28;19924;-64
2023/12/19 05:58:57;;;;;;;;;;;;;;;22.09;29.27;102409.25;4231763;28;19927;-64
2023/12/19 06:01:00;;;;;;;;;;;;;;;22.11;29.14;102407.31;4231923;28;19920;-65
2023/12/19 06:03:02;;;;;;;;;;;;;;;22.14;29.07;102417.00;4231428;28;19932;-62
2023/12/19 06:05:07;;;;;;;;;;;;;;;22.13;29.21;102410.78;4230872;28;20438;-61
2023/12/19 06:07:09;;;;;;;;;;;;;;;22.12;29.25;102413.56;4230476;28;19965;-62
2023/12/19 06:09:13;;;;;;;;;;;;;;;22.09;29.06;102403.88;4231638;28;19980;-61
2023/12/19 06:11:24;;;;;;;;;;;;;;;22.08;29.33;102390.56;4231817;28;19967;-61
2023/12/19 06:13:25;;;;;;;;;;;;;;;22.07;29.43;102388.84;4231768;28;20131;-62
2023/12/19 06:15:27;;;;;;;;;;;;;;;22.08;29.49;102398.59;4230456;28;19920;-62
2023/12/19 06:17:29;;;;;;;;;;;;;;;22.11;29.17;102406.47;4231409;28;20018;-62
2023/12/19 06:19:31;;;;;;;;;;;;;;;22.12;29.31;102402.84;4231506;28;19920;-65
2023/12/19 06:21:33;;;;;;;;;;;;;;;22.15;29.13;102408.88;4230479;28;19964;-64
2023/12/19 06:23:35;;;;;;;;;;;;;;;22.16;29.12;102415.09;4231551;28;19920;-66
2023/12/19 06:25:38;;;;;;;;;;;;;;;22.16;29.12;102418.66;4231540;28;19923;-65
2023/12/19 06:27:40;;;;;;;;;;;;;;;22.14;29.56;102420.56;4231597;28;19920;-63
2023/12/19 06:29:42;;;;;;;;;;;;;;;22.12;29.21;102418.91;4231490;28;19920;-65
2023/12/19 06:31:44;;;;;;;;;;;;;;;22.09;29.33;102419.97;4231126;28;19933;-65
2023/12/19 06:33:46;;;;;;;;;;;;;;;22.08;29.53;102417.34;4231335;28;19919;-63
2023/12/19 06:35:49;;;;;;;;;;;;;;;22.06;29.47;102413.91;4230757;28;20381;-63
2023/12/19 06:37:50;;;;;;;;;;;;;;;22.06;29.57;102404.06;4231202;28;19919;-63
2023/12/19 06:39:52;;;;;;;;;;;;;;;22.08;29.53;102410.19;4231048;28;19926;-65
2023/12/19 06:41:53;;;;;;;;;;;;;;;22.11;29.48;102414.50;4231185;28;19920;-65
2023/12/19 06:43:56;;;;;;;;;;;;;;;22.10;29.49;102402.06;4231208;28;20329;-65
2023/12/19 06:46:18;;;;;;;;;;;;;;;22.12;29.27;102401.00;4231027;28;19926;-67
2023/12/19 06:48:23;;;;;;;;;;;;;;;22.12;29.35;102398.34;4230962;28;19920;-63
2023/12/19 06:50:25;;;;;;;;;;;;;;;22.09;29.56;102387.81;4229358;28;20298;-63
2023/12/19 06:52:27;;;;;;;;;;;;;;;22.08;29.53;102398.59;4231203;28;19955;-63
2023/12/19 06:54:30;;;;;;;;;;;;;;;22.06;29.51;102393.34;4231091;28;20293;-63
2023/12/19 06:56:32;;;;;;;;;;;;;;;22.06;29.41;102390.66;4231075;27;19919;-63
2023/12/19 06:58:33;;;;;;;;;;;;;;;22.06;29.57;102385.28;4231287;28;20341;-63
2023/12/19 07:00:35;;;;;;;;;;;;;;;22.07;29.52;102384.34;4230800;27;19920;-63
2023/12/19 07:02:37;;;;;;;;;;;;;;;22.09;29.56;102386.94;4230884;28;19955;-63
2023/12/19 07:04:38;;;;;;;;;;;;;;;22.12;29.48;102379.56;4231164;28;19920;-63
2023/12/19 07:06:39;;;;;;;;;;;;;;;22.13;29.30;102373.28;4230987;28;20262;-63
2023/12/19 07:08:41;;;;;;;;;;;;;;;22.14;29.29;102368.75;4231088;28;19920;-63
2023/12/19 07:10:48;;;;;;;;;;;;;;;22.14;29.48;102355.38;4230933;28;19973;-63
2023/12/19 07:12:49;;;;;;;;;;;;;;;22.11;29.35;102345.69;4230821;28;19923;-63
2023/12/19 07:14:51;;;;;;;;;;;;;;;22.09;29.39;102346.75;4230384;28;19923;-62
2023/12/19 07:16:52;;;;;;;;;;;;;;;22.09;29.17;102338.69;4230466;28;19950;-63
2023/12/19 07:18:54;;;;;;;;;;;;;;;22.07;29.69;102351.34;4230707;28;19920;-63
2023/12/19 07:20:56;;;;;;;;;;;;;;;22.08;29.59;102339.66;4230869;28;19920;-63
2023/12/19 07:22:58;;;;;;;;;;;;;;;22.09;29.30;102336.91;4230783;28;19919;-64
2023/12/19 07:24:59;;;;;;;;;;;;;;;22.12;29.37;102341.22;4230650;28;19955;-63
2023/12/19 07:27:01;;;;;;;;;;;;;;;22.15;29.35;102335.66;4230592;28;19920;-63
2023/12/19 07:29:04;;;;;;;;;;;;;;;22.15;29.30;102347.25;4230757;28;19927;-63
2023/12/19 07:31:06;;;;;;;;;;;;;;;22.14;29.42;102342.84;4230363;28;20394;-63
2023/12/19 07:33:08;;;;;;;;;;;;;;;22.14;29.60;102341.97;4230975;28;19969;-63
2023/12/19 07:35:09;;;;;;;;;;;;;;;22.12;29.38;102342.06;4230807;28;19920;-63
2023/12/19 07:37:11;;;;;;;;;;;;;;;22.10;29.52;102348.47;4230801;28;19920;-63
2023/12/19 07:39:13;;;;;;;;;;;;;;;22.08;29.67;102336.97;4230617;28;19926;-63
2023/12/19 07:41:14;;;;;;;;;;;;;;;22.07;29.60;102346.00;4230647;28;19985;-63
2023/12/19 07:43:16;;;;;;;;;;;;;;;22.07;29.35;102338.78;4230729;28;19927;-63
2023/12/19 07:45:18;;;;;;;;;;;;;;;22.09;29.38;102339.59;4230383;28;19951;-64
2023/12/19 07:47:19;;;;;;;;;;;;;;;22.12;29.32;102346.56;4230686;28;19981;-63
2023/12/19 07:49:21;;;;;;;;;;;;;;;22.15;29.41;102346.38;4230765;28;19943;-63
2023/12/19 07:51:23;;;;;;;;;;;;;;;22.16;29.28;102337.38;4230511;28;20301;-63
2023/12/19 07:53:25;;;;;;;;;;;;;;;22.15;29.36;102328.50;4230785;28;19919;-63
2023/12/19 07:55:27;;;;;;;;;;;;;;;22.15;29.53;102332.97;4230703;28;19920;-63
2023/12/19 07:57:29;;;;;;;;;;;;;;;22.13;29.67;102335.75;4230481;28;19923;-63
2023/12/19 07:59:30;;;;;;;;;;;;;;;22.12;29.32;102326.00;4230175;28;19928;-63
2023/12/19 08:01:32;;;;;;;;;;;;;;;22.08;29.47;102313.75;4230372;28;19919;-63
2023/12/19 08:03:33;;;;;;;;;;;;;;;22.08;29.67;102313.75;4230285;28;19923;-62
2023/12/19 08:05:35;;;;;;;;;;;;;;;22.09;29.57;102315.47;4230608;28;19920;-63
2023/12/19 08:07:37;;;;;;;;;;;;;;;22.12;29.57;102309.91;4230401;28;19919;-63
2023/12/19 08:09:38;;;;;;;;;;;;;;;22.14;29.72;102305.34;4230802;28;20010;-63
2023/12/19 08:11:40;;;;;;;;;;;;;;;22.16;29.22;102299.88;4230269;28;19923;-63
2023/12/19 08:13:41;;;;;;;;;;;;;;;22.17;29.38;102304.28;4230116;28;19923;-63
2023/12/19 08:15:43;;;;;;;;;;;;;;;22.17;29.38;102301.59;4230286;28;19920;-63
2023/12/19 08:17:45;;;;;;;;;;;;;;;22.15;29.38;102316.91;4230459;28;19919;-63
2023/12/19 08:19:46;;;;;;;;;;;;;;;22.15;29.42;102311.53;4230182;28;19945;-63
2023/12/19 08:21:52;;;;;;;;;;;;;;;22.13;29.45;102308.09;4230461;28;20014;-64
2023/12/19 08:23:54;;;;;;;;;;;;;;;22.11;29.32;102313.53;4230251;28;19920;-64
2023/12/19 08:26:00;;;;;;;;;;;;;;;22.12;29.45;102315.25;4230465;28;19919;-64
2023/12/19 08:28:02;;;;;;;;;;;;;;;22.13;29.48;102322.34;4230402;28;19972;-64
2023/12/19 08:30:04;;;;;;;;;;;;;;;22.15;29.47;102324.94;4233502;28;19919;-63
2023/12/19 08:32:05;;;;;;;;;;;;;;;22.18;29.42;102322.94;4233479;28;20404;-63
2023/12/19 08:34:07;;;;;;;;;;;;;;;22.19;29.55;102313.09;4233254;28;20006;-63
2023/12/19 08:36:09;;;;;;;;;;;;;;;22.20;29.52;102314.84;4233331;28;19963;-63
2023/12/19 08:38:30;;;;;;;;;;;;;;;22.18;29.41;102312.22;4233419;28;20386;-63
2023/12/19 08:40:32;;;;;;;;;;;;;;;22.15;29.63;102312.41;4233168;28;20019;-63
2023/12/19 08:42:34;;;;;;;;;;;;;;;22.14;29.33;102312.50;4232990;28;20390;-63
2023/12/19 08:44:35;;;;;;;;;;;;;;;22.10;29.33;102317.19;4233019;28;19919;-63
2023/12/19 08:46:37;;;;;;;;;;;;;;;22.10;29.70;102319.00;4233107;28;19920;-63
2023/12/19 08:48:39;;;;;;;;;;;;;;;22.09;29.42;102315.47;4233059;28;19993;-64
2023/12/19 08:50:40;;;;;;;;;;;;;;;22.11;29.71;102300.13;4233069;28;19926;-63
2023/12/19 08:52:42;;;;;;;;;;;;;;;22.14;29.67;102299.09;4233089;28;20298;-63
2023/12/19 08:54:44;;;;;;;;;;;;;;;22.15;29.46;102301.69;4232990;28;19919;-63
2023/12/19 08:56:46;;;;;;;;;;;;;;;22.15;29.79;102304.38;4232736;28;19920;-63
2023/12/19 08:58:49;;;;;;;;;;;;;;;22.15;29.65;102307.06;4233068;28;20027;-63
2023/12/19 09:00:50;;;;;;;;;;;;;;;22.13;29.66;102308.09;4232757;28;19919;-63
2023/12/19 09:02:52;;;;;;;;;;;;;;;22.10;29.84;102292.19;4232788;28;20018;-63
2023/12/19 09:04:54;;;;;;;;;;;;;;;22.07;29.70;102284.38;4232733;28;20369;-63
2023/12/19 09:06:56;;;;;;;;;;;;;;;22.05;29.85;102278.22;4232976;28;19962;-63
2023/12/19 09:08:58;;;;;;;;;;;;;;;22.05;29.95;102268.34;4232928;28;20397;-63
2023/12/19 09:11:00;;;;;;;;;;;;;;;22.08;29.59;102275.34;4232675;28;19919;-63
2023/12/19 09:13:01;;;;;;;;;;;;;;;22.11;29.45;102272.50;4232823;28;19919;-63
2023/12/19 09:15:05;;;;;;;;;;;;;;;22.13;29.60;102273.28;4232789;28;20320;-63
2023/12/19 09:17:07;;;;;;;;;;;;;;;22.13;29.82;102262.56;4232728;28;20374;-63
2023/12/19 09:19:14;;;;;;;;;;;;;;;22.12;29.69;102259.00;4231482;28;20348;-64
2023/12/19 09:21:16;;;;;;;;;;;;;;;22.12;29.54;102259.00;4232505;28;19932;-63
2023/12/19 09:23:18;;;;;;;;;;;;;;;22.12;29.33;102252.78;4232713;28;19919;-63
2023/12/19 09:25:20;;;;;;;;;;;;;;;22.08;29.74;102273.53;4231932;28;19920;-57
2023/12/19 09:27:21;;;;;;;;;;;;;;;22.06;29.78;102267.41;4232527;28;20358;-63
2023/12/19 09:29:25;;;;;;;;;;;;;;;22.06;29.41;102269.25;4232627;28;20305;-63
2023/12/19 09:31:27;;;;;;;;;;;;;;;22.06;29.88;102275.44;4232384;28;20438;-63
2023/12/19 09:33:28;;;;;;;;;;;;;;;22.10;29.77;102281.47;4232265;28;19996;-63
2023/12/19 09:35:30;;;;;;;;;;;;;;;22.12;29.61;102279.59;4232230;28;20011;-66
2023/12/19 09:37:32;;;;;;;;;;;;;;;22.14;29.90;102281.22;4232719;28;20382;-63
2023/12/19 09:39:33;;;;;;;;;;;;;;;22.15;29.47;102274.91;4232098;28;20272;-63
2023/12/19 09:41:36;;;;;;;;;;;;;;;22.17;29.75;102267.63;4232071;28;20263;-64
2023/12/19 09:43:38;;;;;;;;;;;;;;;22.17;29.68;102270.28;4232064;28;19920;-63
2023/12/19 09:45:40;;;;;;;;;;;;;;;22.15;29.49;102265.97;4232104;28;19919;-63
2023/12/19 09:47:48;;;;;;;;;;;;;;;22.13;29.55;102275.97;4232191;28;20010;-63
2023/12/19 09:50:00;;;;;;;;;;;;;;;22.12;29.51;102274.22;4232172;28;19924;-63
2023/12/19 09:52:02;;;;;;;;;;;;;;;22.12;29.79;102274.22;4230814;28;19919;-63
2023/12/19 09:54:03;;;;;;;;;;;;;;;22.13;29.58;102279.47;4232171;28;19942;-63
2023/12/19 09:56:05;;;;;;;;;;;;;;;22.15;29.62;102280.25;4231446;28;19927;-63
2023/12/19 09:58:08;;;;;;;;;;;;;;;22.17;29.78;102269.44;4232126;28;20393;-63
2023/12/19 10:00:11;;;;;;;;;;;;;;;22.18;29.58;102266.66;4231844;28;19920;-64
2023/12/19 10:02:14;;;;;;;;;;;;;;;22.19;29.55;102264.88;4231774;28;19920;-63
2023/12/19 10:04:17;;;;;;;;;;;;;;;22.20;29.73;102250.50;4231720;28;20420;-63
2023/12/19 10:06:18;;;;;;;;;;;;;;;22.18;29.46;102263.13;4231975;28;19919;-63
2023/12/19 10:08:21;;;;;;;;;;;;;;;22.17;29.74;102258.72;4231849;28;19919;-63
2023/12/19 10:10:43;;;;;;;;;;;;;;;22.15;29.71;102255.25;4231520;28;19938;-64
2023/12/19 10:12:49;;;;;;;;;;;;;;;22.14;29.66;102246.38;4231571;28;20444;-64
2023/12/19 10:15:10;;;;;;;;;;;;;;;22.15;29.71;102242.75;4231598;28;19924;-63
2023/12/19 10:17:14;;;;;;;;;;;;;;;22.18;29.56;102242.53;4231814;28;19920;-63
2023/12/19 10:19:25;;;;;;;;;;;;;;;22.21;29.54;102238.81;4231497;28;19919;-63
2023/12/19 10:21:28;;;;;;;;;;;;;;;22.24;29.70;102222.56;4214924;28;19927;-63
2023/12/19 10:23:33;;;;;;;;;;;;;;;22.26;29.68;102223.34;4214313;28;19920;-62
2023/12/19 10:25:35;;;;;;;;;;;;;;;22.27;29.64;102218.81;4196783;28;19942;-62
2023/12/19 10:27:46;;;;;;;;;;;;;;;22.27;29.43;102210.78;4214707;28;19924;-63